Metar Aviation Weather Data LFTW Nîmes-Arles-Camargue

28°C Temp
10°C Dewpoint
32% Humidity
Temperature
23 KM/H
14 MPH
12 KTS
20°
North North
East

Wind Speed
Clear
Conditions
Pressure 1015 (hPa) - 29.97 (in)
Visibility 4.4 (mi) - 7.0 (km)

Current Conditions
LFTW
Nîmes-Arles-Camargue
Metar :LFTW 251130Z AUTO 02012KT 350V050 7000 NSC 28/10 Q1015 NOSIG
Mon 25th June 13:30 pm

Nîmes-Arles-Camargue
  Metar Aviation API Data Provided by https://www.checkwx.com/ PHP scripts by weather34.com ©2018